Terminal Aerodrome Forecast
Issued by NWS Cleveland, OH

Home | Current Version | Previous Version | Text Only | Print | Product List | Glossary Off
Versions: 1 2 3 4 5 6 7 8 9 10 11 12 13 14 15 16 17 18 19 20 21 22 23

909
FTUS41 KCLE 210523
TAFERI
TAF
KERI 210523Z 2106/2206 20014G22KT P6SM SCT100 OVC200
     FM211300 23012G18KT 5SM -SHRA OVC025
     FM211500 29012KT 3SM -SHRA BR OVC007
     FM212100 34011KT P6SM VCSH SCT010 OVC020
     FM220000 01008KT P6SM SCT030 OVC100=

USA.gov is the U.S. government's official web portal to all federal, state and local government web resources and services.